Terminal Aerodrome Forecast
Issued by NWS

Home | Current Version | Previous Version | Text Only | Print | Product List | Glossary On
Versions: 1 2 3 4 5 6 7 8 9 10 11 12
288
FTUS46 KMTR 290532
TAFSTS
TAF
KSTS 290532Z 2906/3006 35008KT P6SM SKC
     FM292000 30008KT P6SM SKC
     FM292300 20008KT P6SM SKC
     FM300200 17007KT P6SM SKC=

USA.gov is the U.S. government's official web portal to all federal, state and local government web resources and services.